sensor_id;sensor_type;location;lat;lon;timestamp;temperature;humidity
16267;DHT22;8241;48.786;9.250;2023-04-29T00:00:30;12.90;99.90
16267;DHT22;8241;48.786;9.250;2023-04-29T00:02:57;13.00;99.90
16267;DHT22;8241;48.786;9.250;2023-04-29T00:05:23;12.90;99.90
16267;DHT22;8241;48.786;9.250;2023-04-29T00:07:53;12.90;99.90
16267;DHT22;8241;48.786;9.250;2023-04-29T00:10:19;12.90;99.90
16267;DHT22;8241;48.786;9.250;2023-04-29T00:12:46;12.90;99.90
16267;DHT22;8241;48.786;9.250;2023-04-29T00:15:14;12.80;99.90
16267;DHT22;8241;48.786;9.250;2023-04-29T00:17:42;12.90;99.90
16267;DHT22;8241;48.786;9.250;2023-04-29T00:20:10;12.90;99.90
16267;DHT22;8241;48.786;9.250;2023-04-29T00:22:37;12.90;99.90
16267;DHT22;8241;48.786;9.250;2023-04-29T00:25:04;12.80;99.90
16267;DHT22;8241;48.786;9.250;2023-04-29T00:27:31;12.70;99.90
16267;DHT22;8241;48.786;9.250;2023-04-29T00:29:58;12.80;99.90
16267;DHT22;8241;48.786;9.250;2023-04-29T00:32:25;12.90;99.90
16267;DHT22;8241;48.786;9.250;2023-04-29T00:34:54;12.80;99.90
16267;DHT22;8241;48.786;9.250;2023-04-29T00:37:24;12.70;99.90
16267;DHT22;8241;48.786;9.250;2023-04-29T00:39:51;12.70;99.90
16267;DHT22;8241;48.786;9.250;2023-04-29T00:42:19;12.70;99.90
16267;DHT22;8241;48.786;9.250;2023-04-29T00:44:46;12.70;99.90
16267;DHT22;8241;48.786;9.250;2023-04-29T00:47:13;12.70;99.90
16267;DHT22;8241;48.786;9.250;2023-04-29T00:49:39;12.70;99.90
16267;DHT22;8241;48.786;9.250;2023-04-29T00:52:08;12.60;99.90
16267;DHT22;8241;48.786;9.250;2023-04-29T00:54:37;12.60;99.90
16267;DHT22;8241;48.786;9.250;2023-04-29T00:57:04;12.60;99.90
16267;DHT22;8241;48.786;9.250;2023-04-29T00:59:32;12.60;99.90
16267;DHT22;8241;48.786;9.250;2023-04-29T01:01:59;12.50;99.90
16267;DHT22;8241;48.786;9.250;2023-04-29T01:04:26;12.50;99.90
16267;DHT22;8241;48.786;9.250;2023-04-29T01:06:55;12.50;99.90
16267;DHT22;8241;48.786;9.250;2023-04-29T01:09:40;12.60;99.90
16267;DHT22;8241;48.786;9.250;2023-04-29T01:12:10;12.50;99.90
16267;DHT22;8241;48.786;9.250;2023-04-29T01:14:41;12.50;99.90
16267;DHT22;8241;48.786;9.250;2023-04-29T01:17:09;12.50;99.90
16267;DHT22;8241;48.786;9.250;2023-04-29T01:19:38;12.50;99.90
16267;DHT22;8241;48.786;9.250;2023-04-29T01:22:06;12.50;99.90
16267;DHT22;8241;48.786;9.250;2023-04-29T01:24:35;12.60;99.90
16267;DHT22;8241;48.786;9.250;2023-04-29T01:27:04;12.50;99.90
16267;DHT22;8241;48.786;9.250;2023-04-29T01:29:50;12.50;99.90
16267;DHT22;8241;48.786;9.250;2023-04-29T01:32:22;12.40;99.90
16267;DHT22;8241;48.786;9.250;2023-04-29T01:34:54;12.40;99.90
16267;DHT22;8241;48.786;9.250;2023-04-29T01:37:27;12.30;99.90
16267;DHT22;8241;48.786;9.250;2023-04-29T01:40:05;12.30;99.90
16267;DHT22;8241;48.786;9.250;2023-04-29T01:42:43;12.30;99.90
16267;DHT22;8241;48.786;9.250;2023-04-29T01:45:14;12.30;99.90
16267;DHT22;8241;48.786;9.250;2023-04-29T01:47:42;12.50;99.90
16267;DHT22;8241;48.786;9.250;2023-04-29T01:50:09;12.30;99.90
16267;DHT22;8241;48.786;9.250;2023-04-29T01:52:37;12.30;99.90
16267;DHT22;8241;48.786;9.250;2023-04-29T01:55:06;12.30;99.90
16267;DHT22;8241;48.786;9.250;2023-04-29T01:57:52;12.20;99.90
16267;DHT22;8241;48.786;9.250;2023-04-29T02:00:35;12.20;99.90
16267;DHT22;8241;48.786;9.250;2023-04-29T02:03:03;12.10;99.90
16267;DHT22;8241;48.786;9.250;2023-04-29T02:05:36;12.10;99.90
16267;DHT22;8241;48.786;9.250;2023-04-29T02:08:04;12.10;99.90
16267;DHT22;8241;48.786;9.250;2023-04-29T02:10:37;12.10;99.90
16267;DHT22;8241;48.786;9.250;2023-04-29T02:13:21;12.10;99.90
16267;DHT22;8241;48.786;9.250;2023-04-29T02:15:47;12.10;99.90
16267;DHT22;8241;48.786;9.250;2023-04-29T02:18:15;12.10;99.90
16267;DHT22;8241;48.786;9.250;2023-04-29T02:20:42;12.10;99.90
16267;DHT22;8241;48.786;9.250;2023-04-29T02:23:09;12.00;99.90
16267;DHT22;8241;48.786;9.250;2023-04-29T02:25:37;12.00;99.90
16267;DHT22;8241;48.786;9.250;2023-04-29T02:28:04;12.00;99.90
16267;DHT22;8241;48.786;9.250;2023-04-29T02:30:31;12.00;99.90
16267;DHT22;8241;48.786;9.250;2023-04-29T02:32:58;12.00;99.90
16267;DHT22;8241;48.786;9.250;2023-04-29T02:35:25;12.00;99.90
16267;DHT22;8241;48.786;9.250;2023-04-29T02:37:53;12.00;99.90
16267;DHT22;8241;48.786;9.250;2023-04-29T02:40:19;12.00;99.90
16267;DHT22;8241;48.786;9.250;2023-04-29T02:42:48;12.00;99.90
16267;DHT22;8241;48.786;9.250;2023-04-29T02:45:15;12.10;99.90
16267;DHT22;8241;48.786;9.250;2023-04-29T02:47:41;12.10;99.90
16267;DHT22;8241;48.786;9.250;2023-04-29T02:50:09;12.00;99.90
16267;DHT22;8241;48.786;9.250;2023-04-29T02:52:36;12.00;99.90
16267;DHT22;8241;48.786;9.250;2023-04-29T02:55:03;12.00;99.90
16267;DHT22;8241;48.786;9.250;2023-04-29T02:57:30;11.90;99.90
16267;DHT22;8241;48.786;9.250;2023-04-29T02:59:58;11.90;99.90
16267;DHT22;8241;48.786;9.250;2023-04-29T03:02:25;11.80;99.90
16267;DHT22;8241;48.786;9.250;2023-04-29T03:04:55;11.80;99.90
16267;DHT22;8241;48.786;9.250;2023-04-29T03:07:23;11.90;99.90
16267;DHT22;8241;48.786;9.250;2023-04-29T03:09:51;11.90;99.90
16267;DHT22;8241;48.786;9.250;2023-04-29T03:12:18;11.80;99.90
16267;DHT22;8241;48.786;9.250;2023-04-29T03:18:14;11.70;99.90
16267;DHT22;8241;48.786;9.250;2023-04-29T03:20:41;11.70;99.90
16267;DHT22;8241;48.786;9.250;2023-04-29T03:23:08;11.70;99.90
16267;DHT22;8241;48.786;9.250;2023-04-29T03:25:35;11.70;99.90
16267;DHT22;8241;48.786;9.250;2023-04-29T03:28:02;11.60;99.90
16267;DHT22;8241;48.786;9.250;2023-04-29T03:30:30;11.70;99.90
16267;DHT22;8241;48.786;9.250;2023-04-29T03:32:57;11.70;99.90
16267;DHT22;8241;48.786;9.250;2023-04-29T03:35:27;11.70;99.90
16267;DHT22;8241;48.786;9.250;2023-04-29T03:38:25;11.70;99.90
16267;DHT22;8241;48.786;9.250;2023-04-29T03:40:53;12.00;99.90
16267;DHT22;8241;48.786;9.250;2023-04-29T03:43:20;11.60;99.90
16267;DHT22;8241;48.786;9.250;2023-04-29T03:45:48;11.60;99.90
16267;DHT22;8241;48.786;9.250;2023-04-29T03:48:19;11.70;99.90
16267;DHT22;8241;48.786;9.250;2023-04-29T03:50:47;11.50;99.90
16267;DHT22;8241;48.786;9.250;2023-04-29T03:53:15;11.50;99.90
16267;DHT22;8241;48.786;9.250;2023-04-29T03:55:42;11.40;99.90
16267;DHT22;8241;48.786;9.250;2023-04-29T03:58:09;11.40;99.90
16267;DHT22;8241;48.786;9.250;2023-04-29T04:00:37;11.50;99.90
16267;DHT22;8241;48.786;9.250;2023-04-29T04:03:09;11.40;99.90
16267;DHT22;8241;48.786;9.250;2023-04-29T04:05:37;11.30;99.90
16267;DHT22;8241;48.786;9.250;2023-04-29T04:08:09;11.30;99.90
16267;DHT22;8241;48.786;9.250;2023-04-29T04:10:39;11.20;99.90
16267;DHT22;8241;48.786;9.250;2023-04-29T04:13:17;11.20;99.90
16267;DHT22;8241;48.786;9.250;2023-04-29T04:15:48;11.10;99.90
16267;DHT22;8241;48.786;9.250;2023-04-29T04:18:15;11.10;99.90
16267;DHT22;8241;48.786;9.250;2023-04-29T04:20:41;11.10;99.90
16267;DHT22;8241;48.786;9.250;2023-04-29T04:23:10;11.10;99.90
16267;DHT22;8241;48.786;9.250;2023-04-29T04:25:37;11.00;99.90
16267;DHT22;8241;48.786;9.250;2023-04-29T04:28:23;11.00;99.90
16267;DHT22;8241;48.786;9.250;2023-04-29T04:31:00;11.00;99.90
16267;DHT22;8241;48.786;9.250;2023-04-29T04:33:28;11.10;99.90
16267;DHT22;8241;48.786;9.250;2023-04-29T04:35:55;11.10;99.90
16267;DHT22;8241;48.786;9.250;2023-04-29T04:38:23;11.10;99.90
16267;DHT22;8241;48.786;9.250;2023-04-29T04:40:51;11.20;99.90
16267;DHT22;8241;48.786;9.250;2023-04-29T04:43:27;11.10;99.90
16267;DHT22;8241;48.786;9.250;2023-04-29T04:45:54;11.10;99.90
16267;DHT22;8241;48.786;9.250;2023-04-29T04:48:21;11.10;99.90
16267;DHT22;8241;48.786;9.250;2023-04-29T04:50:49;11.10;99.90
16267;DHT22;8241;48.786;9.250;2023-04-29T04:53:16;11.10;99.90
16267;DHT22;8241;48.786;9.250;2023-04-29T04:55:52;11.10;99.90
16267;DHT22;8241;48.786;9.250;2023-04-29T04:58:19;11.10;99.90
16267;DHT22;8241;48.786;9.250;2023-04-29T05:00:46;11.30;99.90
16267;DHT22;8241;48.786;9.250;2023-04-29T05:03:14;11.40;99.90
16267;DHT22;8241;48.786;9.250;2023-04-29T05:05:41;11.40;99.90
16267;DHT22;8241;48.786;9.250;2023-04-29T05:08:08;11.30;99.90
16267;DHT22;8241;48.786;9.250;2023-04-29T05:10:40;11.20;99.90
16267;DHT22;8241;48.786;9.250;2023-04-29T05:13:10;11.30;99.90
16267;DHT22;8241;48.786;9.250;2023-04-29T05:15:37;11.30;99.90
16267;DHT22;8241;48.786;9.250;2023-04-29T05:18:07;11.40;99.90
16267;DHT22;8241;48.786;9.250;2023-04-29T05:20:34;11.40;99.90
16267;DHT22;8241;48.786;9.250;2023-04-29T05:23:01;11.40;99.90
16267;DHT22;8241;48.786;9.250;2023-04-29T05:25:31;11.30;99.90
16267;DHT22;8241;48.786;9.250;2023-04-29T05:27:59;11.40;99.90
16267;DHT22;8241;48.786;9.250;2023-04-29T05:30:30;11.50;99.90
16267;DHT22;8241;48.786;9.250;2023-04-29T05:32:57;11.60;99.90
16267;DHT22;8241;48.786;9.250;2023-04-29T05:35:24;11.60;99.90
16267;DHT22;8241;48.786;9.250;2023-04-29T05:37:52;11.70;99.90
16267;DHT22;8241;48.786;9.250;2023-04-29T05:40:26;11.70;99.90
16267;DHT22;8241;48.786;9.250;2023-04-29T05:43:05;11.80;99.90
16267;DHT22;8241;48.786;9.250;2023-04-29T05:45:35;11.90;99.90
16267;DHT22;8241;48.786;9.250;2023-04-29T05:48:02;12.00;99.90
16267;DHT22;8241;48.786;9.250;2023-04-29T05:50:29;12.00;99.90
16267;DHT22;8241;48.786;9.250;2023-04-29T05:52:56;12.10;99.90
16267;DHT22;8241;48.786;9.250;2023-04-29T05:55:24;12.20;99.90
16267;DHT22;8241;48.786;9.250;2023-04-29T05:57:51;12.40;99.90
16267;DHT22;8241;48.786;9.250;2023-04-29T06:00:18;12.40;99.90
16267;DHT22;8241;48.786;9.250;2023-04-29T06:02:46;12.50;99.90
16267;DHT22;8241;48.786;9.250;2023-04-29T06:05:15;12.70;99.90
16267;DHT22;8241;48.786;9.250;2023-04-29T06:07:52;12.80;99.90
16267;DHT22;8241;48.786;9.250;2023-04-29T06:10:30;12.90;99.90
16267;DHT22;8241;48.786;9.250;2023-04-29T06:13:00;13.00;99.90
16267;DHT22;8241;48.786;9.250;2023-04-29T06:15:27;13.10;99.90
16267;DHT22;8241;48.786;9.250;2023-04-29T06:17:56;13.10;99.90
16267;DHT22;8241;48.786;9.250;2023-04-29T06:20:23;13.20;99.90
16267;DHT22;8241;48.786;9.250;2023-04-29T06:22:53;13.20;99.90
16267;DHT22;8241;48.786;9.250;2023-04-29T06:25:20;13.20;99.90
16267;DHT22;8241;48.786;9.250;2023-04-29T06:27:48;13.30;99.90
16267;DHT22;8241;48.786;9.250;2023-04-29T06:30:18;13.30;99.90
16267;DHT22;8241;48.786;9.250;2023-04-29T06:32:45;13.30;99.90
16267;DHT22;8241;48.786;9.250;2023-04-29T06:35:13;13.30;99.90
16267;DHT22;8241;48.786;9.250;2023-04-29T06:38:00;13.50;99.90
16267;DHT22;8241;48.786;9.250;2023-04-29T06:40:34;13.70;99.90
16267;DHT22;8241;48.786;9.250;2023-04-29T06:43:13;13.70;99.90
16267;DHT22;8241;48.786;9.250;2023-04-29T06:45:54;13.80;99.90
16267;DHT22;8241;48.786;9.250;2023-04-29T06:48:27;13.80;99.90
16267;DHT22;8241;48.786;9.250;2023-04-29T06:50:57;13.70;99.90
16267;DHT22;8241;48.786;9.250;2023-04-29T06:53:25;13.60;99.90
16267;DHT22;8241;48.786;9.250;2023-04-29T06:55:52;13.50;99.90
16267;DHT22;8241;48.786;9.250;2023-04-29T06:58:19;13.40;99.90
16267;DHT22;8241;48.786;9.250;2023-04-29T07:00:47;13.30;99.90
16267;DHT22;8241;48.786;9.250;2023-04-29T07:03:14;13.30;99.90
16267;DHT22;8241;48.786;9.250;2023-04-29T07:05:41;13.40;99.90
16267;DHT22;8241;48.786;9.250;2023-04-29T07:08:11;13.40;99.90
16267;DHT22;8241;48.786;9.250;2023-04-29T07:10:39;13.50;99.90
16267;DHT22;8241;48.786;9.250;2023-04-29T07:13:06;13.70;99.90
16267;DHT22;8241;48.786;9.250;2023-04-29T07:15:33;13.80;99.90
16267;DHT22;8241;48.786;9.250;2023-04-29T07:18:01;13.90;99.90
16267;DHT22;8241;48.786;9.250;2023-04-29T07:20:28;14.10;99.90
16267;DHT22;8241;48.786;9.250;2023-04-29T07:22:55;14.10;99.90
16267;DHT22;8241;48.786;9.250;2023-04-29T07:25:24;14.20;99.90
16267;DHT22;8241;48.786;9.250;2023-04-29T07:27:51;14.20;99.90
16267;DHT22;8241;48.786;9.250;2023-04-29T07:30:18;14.10;99.90
16267;DHT22;8241;48.786;9.250;2023-04-29T07:32:45;14.10;99.90
16267;DHT22;8241;48.786;9.250;2023-04-29T07:35:12;13.90;99.90
16267;DHT22;8241;48.786;9.250;2023-04-29T07:37:39;13.90;99.90
16267;DHT22;8241;48.786;9.250;2023-04-29T07:40:09;13.90;99.90
16267;DHT22;8241;48.786;9.250;2023-04-29T07:42:38;13.80;99.90
16267;DHT22;8241;48.786;9.250;2023-04-29T07:45:06;13.70;99.90
16267;DHT22;8241;48.786;9.250;2023-04-29T07:47:33;13.60;99.90
16267;DHT22;8241;48.786;9.250;2023-04-29T07:50:00;13.60;99.90
16267;DHT22;8241;48.786;9.250;2023-04-29T07:52:27;13.70;99.90
16267;DHT22;8241;48.786;9.250;2023-04-29T07:54:56;13.70;99.90
16267;DHT22;8241;48.786;9.250;2023-04-29T07:57:29;13.90;99.90
16267;DHT22;8241;48.786;9.250;2023-04-29T07:59:58;14.00;99.90
16267;DHT22;8241;48.786;9.250;2023-04-29T08:02:24;14.10;99.90
16267;DHT22;8241;48.786;9.250;2023-04-29T08:04:53;14.20;99.90
16267;DHT22;8241;48.786;9.250;2023-04-29T08:07:22;14.20;99.90
16267;DHT22;8241;48.786;9.250;2023-04-29T08:09:50;14.20;99.90
16267;DHT22;8241;48.786;9.250;2023-04-29T08:12:17;14.20;99.90
16267;DHT22;8241;48.786;9.250;2023-04-29T08:14:43;14.20;99.90
16267;DHT22;8241;48.786;9.250;2023-04-29T08:17:12;14.20;99.90
16267;DHT22;8241;48.786;9.250;2023-04-29T08:19:38;14.30;99.90
16267;DHT22;8241;48.786;9.250;2023-04-29T08:22:05;14.30;99.90
16267;DHT22;8241;48.786;9.250;2023-04-29T08:24:32;14.30;99.90
16267;DHT22;8241;48.786;9.250;2023-04-29T08:27:01;14.30;99.90
16267;DHT22;8241;48.786;9.250;2023-04-29T08:29:29;14.40;99.90
16267;DHT22;8241;48.786;9.250;2023-04-29T08:31:57;14.50;99.90
16267;DHT22;8241;48.786;9.250;2023-04-29T08:34:25;14.50;99.90
16267;DHT22;8241;48.786;9.250;2023-04-29T08:36:55;14.60;99.90
16267;DHT22;8241;48.786;9.250;2023-04-29T08:39:22;14.60;99.90
16267;DHT22;8241;48.786;9.250;2023-04-29T08:41:49;14.80;99.90
16267;DHT22;8241;48.786;9.250;2023-04-29T08:44:17;14.90;99.90
16267;DHT22;8241;48.786;9.250;2023-04-29T08:46:45;15.00;99.90
16267;DHT22;8241;48.786;9.250;2023-04-29T08:49:12;14.90;99.90
16267;DHT22;8241;48.786;9.250;2023-04-29T08:51:41;14.90;99.90
16267;DHT22;8241;48.786;9.250;2023-04-29T08:54:07;14.80;99.90
16267;DHT22;8241;48.786;9.250;2023-04-29T08:56:34;14.70;99.90
16267;DHT22;8241;48.786;9.250;2023-04-29T08:59:02;14.70;99.90
16267;DHT22;8241;48.786;9.250;2023-04-29T09:01:31;14.70;99.90
16267;DHT22;8241;48.786;9.250;2023-04-29T09:04:07;14.70;99.90
16267;DHT22;8241;48.786;9.250;2023-04-29T09:06:35;14.60;99.90
16267;DHT22;8241;48.786;9.250;2023-04-29T09:09:04;14.60;99.90
16267;DHT22;8241;48.786;9.250;2023-04-29T09:11:31;14.60;99.90
16267;DHT22;8241;48.786;9.250;2023-04-29T09:13:58;14.60;99.90
16267;DHT22;8241;48.786;9.250;2023-04-29T09:16:25;14.70;99.90
16267;DHT22;8241;48.786;9.250;2023-04-29T09:18:52;14.80;99.90
16267;DHT22;8241;48.786;9.250;2023-04-29T09:21:21;15.00;99.90
16267;DHT22;8241;48.786;9.250;2023-04-29T09:23:49;15.50;99.90
16267;DHT22;8241;48.786;9.250;2023-04-29T09:26:19;15.90;99.90
16267;DHT22;8241;48.786;9.250;2023-04-29T09:28:46;16.00;99.90
16267;DHT22;8241;48.786;9.250;2023-04-29T09:31:14;16.10;99.90
16267;DHT22;8241;48.786;9.250;2023-04-29T09:33:50;16.00;99.90
16267;DHT22;8241;48.786;9.250;2023-04-29T09:39:00;15.80;99.90
16267;DHT22;8241;48.786;9.250;2023-04-29T09:41:28;15.60;99.90
16267;DHT22;8241;48.786;9.250;2023-04-29T09:44:01;15.50;99.90
16267;DHT22;8241;48.786;9.250;2023-04-29T09:46:28;15.70;99.90
16267;DHT22;8241;48.786;9.250;2023-04-29T09:48:55;15.90;99.90
16267;DHT22;8241;48.786;9.250;2023-04-29T09:51:24;16.20;99.90
16267;DHT22;8241;48.786;9.250;2023-04-29T09:53:51;16.40;99.90
16267;DHT22;8241;48.786;9.250;2023-04-29T09:56:18;17.00;99.90
16267;DHT22;8241;48.786;9.250;2023-04-29T09:58:47;17.30;99.90
16267;DHT22;8241;48.786;9.250;2023-04-29T10:01:14;17.40;99.90
16267;DHT22;8241;48.786;9.250;2023-04-29T10:03:45;17.30;99.90
16267;DHT22;8241;48.786;9.250;2023-04-29T10:06:13;17.60;99.90
16267;DHT22;8241;48.786;9.250;2023-04-29T10:08:42;17.90;99.90
16267;DHT22;8241;48.786;9.250;2023-04-29T10:11:09;17.70;99.90
16267;DHT22;8241;48.786;9.250;2023-04-29T10:13:37;17.50;99.90
16267;DHT22;8241;48.786;9.250;2023-04-29T10:16:12;17.40;99.90
16267;DHT22;8241;48.786;9.250;2023-04-29T10:18:40;17.40;99.90
16267;DHT22;8241;48.786;9.250;2023-04-29T10:21:07;17.70;99.90
16267;DHT22;8241;48.786;9.250;2023-04-29T10:23:34;18.10;99.90
16267;DHT22;8241;48.786;9.250;2023-04-29T10:26:02;18.10;99.90
16267;DHT22;8241;48.786;9.250;2023-04-29T10:28:30;17.90;99.90
16267;DHT22;8241;48.786;9.250;2023-04-29T10:30:58;17.60;99.90
16267;DHT22;8241;48.786;9.250;2023-04-29T10:33:28;17.60;99.90
16267;DHT22;8241;48.786;9.250;2023-04-29T10:35:59;17.60;99.90
16267;DHT22;8241;48.786;9.250;2023-04-29T10:38:27;17.60;99.90
16267;DHT22;8241;48.786;9.250;2023-04-29T10:41:14;17.70;99.90
16267;DHT22;8241;48.786;9.250;2023-04-29T10:43:42;17.50;99.90
16267;DHT22;8241;48.786;9.250;2023-04-29T10:46:16;17.50;99.90
16267;DHT22;8241;48.786;9.250;2023-04-29T10:48:44;17.80;99.90
16267;DHT22;8241;48.786;9.250;2023-04-29T10:51:11;17.90;99.90
16267;DHT22;8241;48.786;9.250;2023-04-29T10:56:20;17.70;99.50
16267;DHT22;8241;48.786;9.250;2023-04-29T10:58:47;17.40;98.90
16267;DHT22;8241;48.786;9.250;2023-04-29T11:01:14;17.40;99.90
16267;DHT22;8241;48.786;9.250;2023-04-29T11:03:46;17.40;99.50
16267;DHT22;8241;48.786;9.250;2023-04-29T11:06:14;17.40;99.90
16267;DHT22;8241;48.786;9.250;2023-04-29T11:08:41;17.40;99.90
16267;DHT22;8241;48.786;9.250;2023-04-29T11:11:09;17.40;99.90
16267;DHT22;8241;48.786;9.250;2023-04-29T11:13:37;17.40;99.50
16267;DHT22;8241;48.786;9.250;2023-04-29T11:16:04;17.40;99.90
16267;DHT22;8241;48.786;9.250;2023-04-29T11:18:32;17.50;99.90
16267;DHT22;8241;48.786;9.250;2023-04-29T11:21:12;18.00;99.90
16267;DHT22;8241;48.786;9.250;2023-04-29T11:23:39;18.20;98.60
16267;DHT22;8241;48.786;9.250;2023-04-29T11:26:07;18.30;99.40
16267;DHT22;8241;48.786;9.250;2023-04-29T11:28:34;18.40;97.10
16267;DHT22;8241;48.786;9.250;2023-04-29T11:31:01;18.20;97.90
16267;DHT22;8241;48.786;9.250;2023-04-29T11:33:30;18.30;98.70
16267;DHT22;8241;48.786;9.250;2023-04-29T11:35:59;18.30;98.20
16267;DHT22;8241;48.786;9.250;2023-04-29T11:38:29;18.10;97.50
16267;DHT22;8241;48.786;9.250;2023-04-29T11:40:56;17.90;98.10
16267;DHT22;8241;48.786;9.250;2023-04-29T11:43:23;17.90;98.50
16267;DHT22;8241;48.786;9.250;2023-04-29T11:45:51;17.90;99.00
16267;DHT22;8241;48.786;9.250;2023-04-29T11:48:18;17.80;98.60
16267;DHT22;8241;48.786;9.250;2023-04-29T11:50:45;17.80;99.10
16267;DHT22;8241;48.786;9.250;2023-04-29T11:53:15;18.10;98.60
16267;DHT22;8241;48.786;9.250;2023-04-29T11:55:43;18.60;98.10
16267;DHT22;8241;48.786;9.250;2023-04-29T11:58:10;19.00;96.50
16267;DHT22;8241;48.786;9.250;2023-04-29T12:00:37;19.90;95.80
16267;DHT22;8241;48.786;9.250;2023-04-29T12:03:06;20.80;94.80
16267;DHT22;8241;48.786;9.250;2023-04-29T12:05:33;21.50;93.80
16267;DHT22;8241;48.786;9.250;2023-04-29T12:08:00;22.30;93.00
16267;DHT22;8241;48.786;9.250;2023-04-29T12:10:29;22.50;92.20
16267;DHT22;8241;48.786;9.250;2023-04-29T12:12:57;22.50;92.90
16267;DHT22;8241;48.786;9.250;2023-04-29T12:15:25;22.50;92.50
16267;DHT22;8241;48.786;9.250;2023-04-29T12:17:53;22.70;92.10
16267;DHT22;8241;48.786;9.250;2023-04-29T12:20:20;23.20;91.70
16267;DHT22;8241;48.786;9.250;2023-04-29T12:22:47;23.30;91.30
16267;DHT22;8241;48.786;9.250;2023-04-29T12:25:14;23.10;91.40
16267;DHT22;8241;48.786;9.250;2023-04-29T12:27:42;23.00;90.70
16267;DHT22;8241;48.786;9.250;2023-04-29T12:30:10;22.50;91.50
16267;DHT22;8241;48.786;9.250;2023-04-29T12:32:37;21.80;91.40
16267;DHT22;8241;48.786;9.250;2023-04-29T12:35:04;20.90;93.50
16267;DHT22;8241;48.786;9.250;2023-04-29T12:37:31;20.60;93.40
16267;DHT22;8241;48.786;9.250;2023-04-29T12:39:59;20.30;94.10
16267;DHT22;8241;48.786;9.250;2023-04-29T12:42:32;20.60;93.80
16267;DHT22;8241;48.786;9.250;2023-04-29T12:44:59;21.30;93.70
16267;DHT22;8241;48.786;9.250;2023-04-29T12:47:31;21.70;93.20
16267;DHT22;8241;48.786;9.250;2023-04-29T12:49:59;22.00;93.10
16267;DHT22;8241;48.786;9.250;2023-04-29T12:52:26;22.10;92.40
16267;DHT22;8241;48.786;9.250;2023-04-29T12:54:55;21.40;91.20
16267;DHT22;8241;48.786;9.250;2023-04-29T12:57:22;21.10;92.80
16267;DHT22;8241;48.786;9.250;2023-04-29T12:59:50;21.00;93.40
16267;DHT22;8241;48.786;9.250;2023-04-29T13:02:17;20.60;94.00
16267;DHT22;8241;48.786;9.250;2023-04-29T13:04:45;20.60;94.40
16267;DHT22;8241;48.786;9.250;2023-04-29T13:07:13;20.60;94.20
16267;DHT22;8241;48.786;9.250;2023-04-29T13:09:40;20.50;93.70
16267;DHT22;8241;48.786;9.250;2023-04-29T13:12:07;20.10;94.10
16267;DHT22;8241;48.786;9.250;2023-04-29T13:14:33;20.10;94.20
16267;DHT22;8241;48.786;9.250;2023-04-29T13:17:00;20.00;93.90
16267;DHT22;8241;48.786;9.250;2023-04-29T13:19:28;20.00;95.00
16267;DHT22;8241;48.786;9.250;2023-04-29T13:22:04;20.10;95.20
16267;DHT22;8241;48.786;9.250;2023-04-29T13:24:31;19.90;94.80
16267;DHT22;8241;48.786;9.250;2023-04-29T13:26:59;20.00;95.10
16267;DHT22;8241;48.786;9.250;2023-04-29T13:29:27;20.20;95.00
16267;DHT22;8241;48.786;9.250;2023-04-29T13:31:54;20.10;93.30
16267;DHT22;8241;48.786;9.250;2023-04-29T13:34:21;20.10;93.90
16267;DHT22;8241;48.786;9.250;2023-04-29T13:36:48;20.10;94.10
16267;DHT22;8241;48.786;9.250;2023-04-29T13:39:16;19.60;94.00
16267;DHT22;8241;48.786;9.250;2023-04-29T13:41:46;19.40;94.90
16267;DHT22;8241;48.786;9.250;2023-04-29T13:44:13;19.30;95.40
16267;DHT22;8241;48.786;9.250;2023-04-29T13:46:39;19.20;95.30
16267;DHT22;8241;48.786;9.250;2023-04-29T13:49:06;19.20;95.20
16267;DHT22;8241;48.786;9.250;2023-04-29T13:51:33;19.30;95.10
16267;DHT22;8241;48.786;9.250;2023-04-29T13:54:00;19.40;95.30
16267;DHT22;8241;48.786;9.250;2023-04-29T13:56:29;19.50;94.60
16267;DHT22;8241;48.786;9.250;2023-04-29T13:58:56;19.70;95.30
16267;DHT22;8241;48.786;9.250;2023-04-29T14:01:22;19.80;95.10
16267;DHT22;8241;48.786;9.250;2023-04-29T14:03:56;19.90;94.70
16267;DHT22;8241;48.786;9.250;2023-04-29T14:06:23;19.50;95.10
16267;DHT22;8241;48.786;9.250;2023-04-29T14:08:50;19.40;96.10
16267;DHT22;8241;48.786;9.250;2023-04-29T14:11:16;19.30;95.90
16267;DHT22;8241;48.786;9.250;2023-04-29T14:13:45;19.40;96.40
16267;DHT22;8241;48.786;9.250;2023-04-29T14:16:12;19.40;95.90
16267;DHT22;8241;48.786;9.250;2023-04-29T14:18:39;19.40;95.10
16267;DHT22;8241;48.786;9.250;2023-04-29T14:21:05;19.50;94.10
16267;DHT22;8241;48.786;9.250;2023-04-29T14:23:32;19.60;95.10
16267;DHT22;8241;48.786;9.250;2023-04-29T14:25:59;19.70;94.80
16267;DHT22;8241;48.786;9.250;2023-04-29T14:28:26;19.60;94.80
16267;DHT22;8241;48.786;9.250;2023-04-29T14:30:54;19.40;95.00
16267;DHT22;8241;48.786;9.250;2023-04-29T14:33:21;19.40;94.60
16267;DHT22;8241;48.786;9.250;2023-04-29T14:35:48;19.30;94.10
16267;DHT22;8241;48.786;9.250;2023-04-29T14:38:16;19.20;94.60
16267;DHT22;8241;48.786;9.250;2023-04-29T14:40:42;19.10;94.80
16267;DHT22;8241;48.786;9.250;2023-04-29T14:43:09;18.90;95.10
16267;DHT22;8241;48.786;9.250;2023-04-29T14:45:36;18.90;94.90
16267;DHT22;8241;48.786;9.250;2023-04-29T14:48:04;18.80;94.60
16267;DHT22;8241;48.786;9.250;2023-04-29T14:50:32;18.90;95.40
16267;DHT22;8241;48.786;9.250;2023-04-29T14:53:01;18.90;95.80
16267;DHT22;8241;48.786;9.250;2023-04-29T14:55:27;19.00;95.70
16267;DHT22;8241;48.786;9.250;2023-04-29T14:57:54;19.00;95.00
16267;DHT22;8241;48.786;9.250;2023-04-29T15:00:21;18.90;95.20
16267;DHT22;8241;48.786;9.250;2023-04-29T15:02:48;18.90;94.90
16267;DHT22;8241;48.786;9.250;2023-04-29T15:05:16;18.80;95.40
16267;DHT22;8241;48.786;9.250;2023-04-29T15:07:44;18.80;95.40
16267;DHT22;8241;48.786;9.250;2023-04-29T15:10:12;18.70;95.80
16267;DHT22;8241;48.786;9.250;2023-04-29T15:12:38;18.70;95.90
16267;DHT22;8241;48.786;9.250;2023-04-29T15:15:06;18.50;95.80
16267;DHT22;8241;48.786;9.250;2023-04-29T15:17:33;18.40;95.90
16267;DHT22;8241;48.786;9.250;2023-04-29T15:20:00;18.30;96.90
16267;DHT22;8241;48.786;9.250;2023-04-29T15:22:28;18.30;96.30
16267;DHT22;8241;48.786;9.250;2023-04-29T15:24:55;18.20;96.10
16267;DHT22;8241;48.786;9.250;2023-04-29T15:27:22;18.10;96.00
16267;DHT22;8241;48.786;9.250;2023-04-29T15:29:49;18.00;95.70
16267;DHT22;8241;48.786;9.250;2023-04-29T15:32:18;17.90;96.00
16267;DHT22;8241;48.786;9.250;2023-04-29T15:34:45;17.90;96.50
16267;DHT22;8241;48.786;9.250;2023-04-29T15:37:12;17.90;96.30
16267;DHT22;8241;48.786;9.250;2023-04-29T15:39:40;18.00;96.40
16267;DHT22;8241;48.786;9.250;2023-04-29T15:42:07;17.90;96.60
16267;DHT22;8241;48.786;9.250;2023-04-29T15:44:34;18.10;96.20
16267;DHT22;8241;48.786;9.250;2023-04-29T15:47:03;18.00;96.00
16267;DHT22;8241;48.786;9.250;2023-04-29T15:49:30;18.00;96.30
16267;DHT22;8241;48.786;9.250;2023-04-29T15:51:56;17.80;96.50
16267;DHT22;8241;48.786;9.250;2023-04-29T15:54:23;17.80;96.80
16267;DHT22;8241;48.786;9.250;2023-04-29T15:56:52;17.60;96.70
16267;DHT22;8241;48.786;9.250;2023-04-29T15:59:19;17.70;96.40
16267;DHT22;8241;48.786;9.250;2023-04-29T16:01:46;17.60;96.90